KBKD/BKD METAR and TAF weather

Enter ICAO airport designator
Station Type Date Time Source
KBKD METAR 2019/06/20 06:55 UTC NOAA

KBKD 200655Z AUTO 18004KT 10SM CLR 23/16 A2978 RMK AO2 T02300163


Station Type Date Time Source
KBKD Decoded METAR 2019/06/20 06:55 UTC NOAA

Station name not available
Jun 20, 2019 - 02:55 AM EDT / 2019.06.20 0655 UTC
Wind: from the S (180 degrees) at 5 MPH (4 KT):0
Visibility: 10 mile(s):0
Sky conditions: clear
Temperature: 73.4 F (23.0 C)
Dew Point: 61.3 F (16.3 C)
Relative Humidity: 65%
Pressure (altimeter): 29.78 in. Hg (1008 hPa)
ob: KBKD 200655Z AUTO 18004KT 10SM CLR 23/16 A2978 RMK AO2 T02300163
cycle: 7

Station Type Date Time Source
KBKD TAF UTC NOAA

Error!

Example: see airport list